CheckWX is a tool to help pilots better visualize weather data.  It is not intended as a substitute for an official pre-flight weather briefing.

14:02:02 UTC

VTBU METAR
U-Tapao International Airport
Rayong, Thailand
Current

32 mins ago

VTBU 151330Z 00000KT 9999 FEW020 SCT100 27/24 Q1007 NOSIG
Observed
Sep-15 @ 13:30 UTC
Visibility
10,000+ meters
Flight Rules
VFR
Cloud Levels
  • Few at 2,000' AGL
  • Scattered at 10,000' AGL
Temperature
27°C / 81°F
Dewpoint
24°C / 75°F
Heat Index
31°C / 87°F
Humidity
84%
Altimeter
29.73" Hg
Pressure
1006.92 hPa
Previous

1 hour ago

VTBU 151300Z 21003KT 9999 FEW020 SCT100 27/24 Q1007 NOSIG
Observed
Sep-15 @ 13:00 UTC
Wind
  • 210° at 3 KTS
Visibility
10,000+ meters
Flight Rules
VFR
Cloud Levels
  • Few at 2,000' AGL
  • Scattered at 10,000' AGL
Temperature
27°C / 81°F
Dewpoint
24°C / 75°F
Heat Index
31°C / 87°F
Humidity
84%
Altimeter
29.73" Hg
Pressure
1006.92 hPa
Previous

2 hours ago

VTBU 151230Z 30002KT 9999 FEW020 SCT100 27/24 Q1006 NOSIG
Observed
Sep-15 @ 12:30 UTC
Wind
  • 300° at 2 KTS
Visibility
10,000+ meters
Flight Rules
VFR
Cloud Levels
  • Few at 2,000' AGL
  • Scattered at 10,000' AGL
Temperature
27°C / 81°F
Dewpoint
24°C / 75°F
Heat Index
31°C / 87°F
Humidity
84%
Altimeter
29.7" Hg
Pressure
1005.92 hPa